Time;durP1;ratioP1;P1;durP2;ratioP2;P2;SDS_P1;SDS_P2;PMS_P1;PMS_P2;Temp;Humidity;BMP_temperature;BMP_pressure;BME280_temperature;BME280_humidity;BME280_pressure;Samples;Min_cycle;Max_cycle;Signal;HPM_P1;HPM_P2
2020/12/20 00:01:43;;;;;;;7.03;2.08;;;6.10;99.90;;;;;;5055166;28;20017;-93
2020/12/20 00:04:11;;;;;;;5.68;1.35;;;6.00;99.90;;;;;;5055414;28;20024;-93
2020/12/20 00:06:42;;;;;;;4.85;1.45;;;6.00;99.90;;;;;;5056254;28;20028;-94
2020/12/20 00:09:08;;;;;;;;;;;6.00;99.90;;;;;;5057833;28;20110;-92
2020/12/20 00:11:39;;;;;;;2.20;0.73;;;6.00;99.90;;;;;;5058176;28;19905;-92
2020/12/20 00:14:50;;;;;;;7.57;2.22;;;6.00;99.90;;;;;;5056558;28;20045;-93
2020/12/20 00:16:51;;;;;;;6.10;1.40;;;6.00;99.90;;;;;;5055344;28;20044;-93
2020/12/20 00:19:16;;;;;;;3.78;1.10;;;6.00;99.90;;;;;;5058152;28;20029;-93
2020/12/20 00:21:42;;;;;;;7.68;1.13;;;6.00;99.90;;;;;;5056819;28;20029;-94
2020/12/20 00:24:11;;;;;;;7.40;1.98;;;6.00;99.90;;;;;;5056466;28;20025;-93
2020/12/20 00:26:41;;;;;;;9.32;1.17;;;6.00;99.90;;;;;;5056415;28;20025;-93
2020/12/20 00:29:07;;;;;;;7.67;1.10;;;6.00;99.90;;;;;;5055320;28;20036;-92
2020/12/20 00:31:32;;;;;;;5.25;1.60;;;6.00;99.90;;;;;;5055784;28;20120;-93
2020/12/20 00:33:58;;;;;;;5.50;1.15;;;5.90;99.90;;;;;;5054670;28;20044;-92
2020/12/20 00:36:24;;;;;;;15.52;2.88;;;6.00;99.90;;;;;;5054862;28;20546;-91
2020/12/20 00:38:49;;;;;;;11.48;3.42;;;5.90;99.90;;;;;;5054671;28;20075;-93
2020/12/20 00:41:15;;;;;;;7.88;1.10;;;5.90;99.90;;;;;;5054758;28;20017;-93
2020/12/20 00:43:41;;;;;;;9.18;1.80;;;5.90;99.90;;;;;;5056155;28;20032;-91
2020/12/20 00:46:06;;;;;;;7.35;2.15;;;5.90;99.90;;;;;;5056078;28;20032;-93
2020/12/20 00:48:32;;;;;;;2.33;0.82;;;5.90;99.90;;;;;;5055856;28;20437;-92
2020/12/20 00:51:00;;;;;;;10.65;1.48;;;5.90;99.90;;;;;;5058449;28;20484;-93
2020/12/20 00:53:26;;;;;;;9.00;1.50;;;5.90;99.90;;;;;;5056156;28;20131;-93
2020/12/20 00:55:52;;;;;;;5.30;1.45;;;5.90;99.90;;;;;;5055286;28;20121;-93
2020/12/20 00:58:20;;;;;;;7.80;1.27;;;5.90;99.90;;;;;;5055800;28;20029;-93
2020/12/20 01:00:45;;;;;;;7.30;1.05;;;5.90;99.90;;;;;;5054935;28;20025;-93
2020/12/20 01:03:11;;;;;;;9.18;1.27;;;5.90;99.90;;;;;;5055174;28;20036;-94
2020/12/20 01:05:37;;;;;;;5.05;1.00;;;5.90;99.90;;;;;;5055678;28;20028;-93
2020/12/20 01:08:02;;;;;;;8.05;1.23;;;5.90;99.90;;;;;;5052709;28;20036;-94
2020/12/20 01:10:28;;;;;;;5.75;1.10;;;5.90;99.90;;;;;;5056248;28;20060;-93
2020/12/20 01:12:55;;;;;;;5.25;0.82;;;5.80;99.90;;;;;;5058264;28;20045;-93
2020/12/20 01:15:20;;;;;;;13.38;1.80;;;5.80;99.90;;;;;;5055102;28;20043;-93
2020/12/20 01:17:46;;;;;;;8.02;1.25;;;5.90;99.90;;;;;;5056345;28;20506;-93
2020/12/20 01:20:12;;;;;;;4.10;0.88;;;5.90;99.90;;;;;;5054506;28;20029;-93
2020/12/20 01:22:37;;;;;;;11.88;1.55;;;5.90;99.90;;;;;;5054840;28;20120;-92
2020/12/20 01:25:03;;;;;;;9.95;1.20;;;5.90;99.90;;;;;;5053773;28;20033;-93
2020/12/20 01:27:29;;;;;;;3.15;0.57;;;5.90;99.90;;;;;;5054316;28;20048;-92
2020/12/20 01:29:54;;;;;;;3.92;0.93;;;5.90;99.90;;;;;;5053191;28;20494;-93
2020/12/20 01:32:20;;;;;;;2.33;0.90;;;6.00;99.90;;;;;;5056197;28;20060;-93
2020/12/20 01:34:46;;;;;;;5.43;1.33;;;5.90;99.90;;;;;;5053915;28;20486;-92
2020/12/20 01:37:11;;;;;;;9.35;1.25;;;5.90;99.90;;;;;;5053394;28;20032;-92
2020/12/20 01:39:38;;;;;;;6.95;1.15;;;5.90;99.90;;;;;;5054148;28;20047;-93
2020/12/20 01:42:04;;;;;;;10.13;1.50;;;5.90;99.90;;;;;;5054812;28;20017;-92
2020/12/20 01:44:30;;;;;;;6.45;1.30;;;5.90;99.90;;;;;;5053692;28;20508;-94
2020/12/20 01:46:56;;;;;;;10.77;1.65;;;5.90;99.90;;;;;;5054855;28;20021;-93
2020/12/20 01:49:22;;;;;;;5.85;1.08;;;5.90;99.90;;;;;;5055955;28;20032;-93
2020/12/20 01:51:49;;;;;;;8.35;1.63;;;5.80;99.90;;;;;;5055835;28;20025;-93
2020/12/20 01:54:15;;;;;;;12.43;1.45;;;5.80;99.90;;;;;;5053304;28;20136;-93
2020/12/20 01:56:41;;;;;;;9.60;1.92;;;5.80;99.90;;;;;;5055218;28;20056;-93
2020/12/20 01:59:07;;;;;;;15.95;2.28;;;5.80;99.90;;;;;;5054447;28;20036;-93
2020/12/20 02:01:32;;;;;;;11.48;1.63;;;5.80;99.90;;;;;;5055107;28;20017;-93
2020/12/20 02:03:58;;;;;;;5.85;2.00;;;5.80;99.90;;;;;;5055785;28;20478;-93
2020/12/20 02:06:24;;;;;;;12.15;2.05;;;5.80;99.90;;;;;;5054635;28;20065;-92
2020/12/20 02:08:49;;;;;;;9.48;2.92;;;5.80;99.90;;;;;;5053812;28;20064;-94
2020/12/20 02:11:16;;;;;;;8.80;2.13;;;5.80;99.90;;;;;;5053545;28;20071;-93
2020/12/20 02:13:48;;;;;;;9.15;1.75;;;5.80;99.90;;;;;;5053169;28;20060;-93
2020/12/20 02:16:15;;;;;;;9.73;1.58;;;5.80;99.90;;;;;;5053413;28;20021;-93
2020/12/20 02:18:41;;;;;;;8.80;2.35;;;5.80;99.90;;;;;;5054410;28;20029;-93
2020/12/20 02:21:17;;;;;;;8.50;1.92;;;5.80;99.90;;;;;;5052876;28;20472;-93
2020/12/20 02:23:43;;;;;;;6.38;1.77;;;5.90;99.90;;;;;;5051342;28;20037;-93
2020/12/20 02:26:11;;;;;;;16.30;2.42;;;5.90;99.90;;;;;;5051249;28;20524;-92
2020/12/20 02:28:37;;;;;;;12.02;1.90;;;5.90;99.90;;;;;;5052137;28;20041;-93
2020/12/20 02:31:03;;;;;;;11.57;1.92;;;5.90;99.90;;;;;;5053534;28;20112;-93
2020/12/20 02:33:30;;;;;;;5.60;1.00;;;5.90;99.90;;;;;;5053474;28;20048;-93
2020/12/20 02:35:56;;;;;;;7.40;2.25;;;6.00;99.90;;;;;;5056854;28;20025;-94
2020/12/20 02:38:22;;;;;;;5.47;1.10;;;6.00;99.90;;;;;;5052312;28;20032;-93
2020/12/20 02:40:48;;;;;;;11.07;3.17;;;6.10;99.90;;;;;;5056605;28;20028;-93
2020/12/20 02:43:13;;;;;;;3.47;0.73;;;6.10;99.90;;;;;;5058002;28;20025;-94
2020/12/20 02:45:39;;;;;;;5.55;1.35;;;6.10;99.90;;;;;;5058718;28;20035;-92
2020/12/20 02:48:04;;;;;;;4.80;1.25;;;6.10;99.90;;;;;;5057797;28;20029;-93
2020/12/20 02:50:30;;;;;;;7.03;0.95;;;6.10;99.90;;;;;;5072172;28;20025;-94
2020/12/20 02:52:56;;;;;;;6.15;1.15;;;6.10;99.90;;;;;;5076161;28;20052;-93
2020/12/20 02:55:22;;;;;;;11.65;1.02;;;6.10;99.90;;;;;;5077821;28;20009;-94
2020/12/20 02:57:48;;;;;;;6.55;1.30;;;6.10;99.90;;;;;;5073532;28;20033;-94
2020/12/20 03:00:14;;;;;;;4.80;1.30;;;6.10;99.90;;;;;;5062339;28;20517;-94
2020/12/20 03:02:40;;;;;;;7.30;0.93;;;6.10;99.90;;;;;;5059588;28;20148;-94
2020/12/20 03:05:05;;;;;;;7.15;1.40;;;6.10;99.90;;;;;;5058648;28;20025;-94
2020/12/20 03:07:31;;;;;;;6.40;1.13;;;6.00;99.90;;;;;;5056641;28;20024;-93
2020/12/20 03:09:57;;;;;;;10.05;1.50;;;6.00;99.90;;;;;;5056398;28;20058;-93
2020/12/20 03:12:22;;;;;;;6.82;1.05;;;6.00;99.90;;;;;;5057562;28;20552;-93
2020/12/20 03:14:48;;;;;;;6.35;1.33;;;6.00;99.90;;;;;;5057154;28;20468;-93
2020/12/20 03:17:14;;;;;;;5.63;1.13;;;6.00;99.90;;;;;;5058451;28;20111;-94
2020/12/20 03:19:40;;;;;;;6.40;1.42;;;5.90;99.90;;;;;;5059115;28;20094;-94
2020/12/20 03:22:06;;;;;;;9.75;1.55;;;5.90;99.90;;;;;;5058266;28;20115;-93
2020/12/20 03:24:31;;;;;;;6.85;0.85;;;5.90;99.90;;;;;;5057866;28;20033;-93
2020/12/20 03:26:57;;;;;;;8.65;1.10;;;5.90;99.90;;;;;;5058438;28;20028;-94
2020/12/20 03:29:24;;;;;;;5.25;0.95;;;5.90;99.90;;;;;;5058009;28;20139;-93
2020/12/20 03:31:50;;;;;;;5.28;0.68;;;5.80;99.90;;;;;;5059435;28;20605;-93
2020/12/20 03:34:16;;;;;;;4.93;0.98;;;5.80;99.90;;;;;;5059123;28;20077;-93
2020/12/20 03:36:41;;;;;;;6.40;1.30;;;5.80;99.90;;;;;;5059301;28;20025;-94
2020/12/20 03:39:07;;;;;;;7.78;1.50;;;5.80;99.90;;;;;;5060514;28;20032;-93
2020/12/20 03:41:33;;;;;;;6.95;1.25;;;5.80;99.90;;;;;;5059420;28;20029;-94
2020/12/20 03:43:58;;;;;;;7.50;1.98;;;5.80;99.90;;;;;;5059453;28;20179;-93
2020/12/20 03:46:24;;;;;;;4.72;1.20;;;5.70;99.90;;;;;;5058896;28;20382;-94
2020/12/20 03:48:50;;;;;;;8.55;1.30;;;5.70;99.90;;;;;;5060407;28;20036;-93
2020/12/20 03:51:15;;;;;;;6.78;0.98;;;5.70;99.90;;;;;;5057671;28;20425;-93
2020/12/20 03:53:41;;;;;;;4.93;1.23;;;5.70;99.90;;;;;;5055763;28;20131;-94
2020/12/20 03:56:10;;;;;;;5.78;0.95;;;5.70;99.90;;;;;;5056414;28;20549;-92
2020/12/20 03:58:35;;;;;;;8.63;1.05;;;5.70;99.90;;;;;;5057712;28;20033;-93
2020/12/20 04:01:02;;;;;;;3.67;0.95;;;5.70;99.90;;;;;;5059917;28;20086;-93
2020/12/20 04:03:28;;;;;;;6.13;1.20;;;5.70;99.90;;;;;;5068427;28;20029;-94
2020/12/20 04:05:54;;;;;;;5.25;1.10;;;5.70;99.90;;;;;;5058030;28;20057;-93
2020/12/20 04:08:19;;;;;;;4.85;0.90;;;5.70;99.90;;;;;;5057257;28;20058;-94
2020/12/20 04:10:45;;;;;;;3.80;0.85;;;5.60;99.90;;;;;;5057738;28;20116;-93
2020/12/20 04:13:11;;;;;;;5.70;0.95;;;5.60;99.90;;;;;;5057265;28;20498;-94
2020/12/20 04:15:37;;;;;;;5.70;1.00;;;5.60;99.90;;;;;;5057480;28;20040;-96
2020/12/20 04:18:02;;;;;;;11.18;1.10;;;5.70;99.90;;;;;;5056541;28;20025;-93
2020/12/20 04:20:28;;;;;;;3.40;1.10;;;5.70;99.90;;;;;;5056857;28;20041;-93
2020/12/20 04:22:54;;;;;;;7.82;1.30;;;5.70;99.90;;;;;;5056139;28;20021;-93
2020/12/20 04:25:19;;;;;;;6.63;1.45;;;5.70;99.90;;;;;;5055749;28;20601;-94
2020/12/20 04:27:48;;;;;;;9.13;1.83;;;5.70;99.90;;;;;;5056427;28;20032;-93
2020/12/20 04:30:14;;;;;;;7.82;0.93;;;5.70;99.90;;;;;;5055379;28;20024;-93
2020/12/20 04:32:40;;;;;;;8.45;1.20;;;5.80;99.90;;;;;;5056770;28;20025;-93
2020/12/20 04:35:06;;;;;;;9.63;1.13;;;5.80;99.90;;;;;;5056410;28;20033;-94
2020/12/20 04:37:32;;;;;;;4.20;1.00;;;5.80;99.90;;;;;;5056547;28;20482;-92
2020/12/20 04:39:57;;;;;;;12.63;1.95;;;5.80;99.90;;;;;;5056308;28;20029;-93
2020/12/20 04:42:25;;;;;;;6.32;1.15;;;5.80;99.90;;;;;;5056135;28;20029;-93
2020/12/20 04:44:52;;;;;;;5.55;1.17;;;5.80;99.90;;;;;;5056524;28;20032;-94
2020/12/20 04:47:18;;;;;;;5.75;2.22;;;5.80;99.90;;;;;;5055756;28;20041;-94
2020/12/20 04:49:47;;;;;;;6.05;1.33;;;5.80;99.90;;;;;;5053531;28;20065;-94
2020/12/20 04:52:13;;;;;;;8.75;1.10;;;5.80;99.90;;;;;;5053125;28;20065;-93
2020/12/20 04:54:40;;;;;;;9.98;1.13;;;5.80;99.90;;;;;;5055859;28;20025;-93
2020/12/20 04:57:09;;;;;;;11.07;3.05;;;5.80;99.90;;;;;;5056733;28;20120;-94
2020/12/20 04:59:36;;;;;;;7.00;1.42;;;5.80;99.90;;;;;;5056029;28;20035;-93
2020/12/20 05:02:02;;;;;;;6.57;0.95;;;5.80;99.90;;;;;;5058015;28;20484;-93
2020/12/20 05:04:29;;;;;;;8.52;1.10;;;5.80;99.90;;;;;;5059308;28;20028;-93
2020/12/20 05:06:56;;;;;;;2.80;0.63;;;5.80;99.90;;;;;;5059509;28;20033;-93
2020/12/20 05:09:21;;;;;;;5.95;1.10;;;5.80;99.90;;;;;;5064404;28;20036;-94
2020/12/20 05:11:47;;;;;;;5.50;1.08;;;5.70;99.90;;;;;;5067301;28;20029;-94
2020/12/20 05:14:14;;;;;;;7.32;1.30;;;5.80;99.90;;;;;;5066679;28;20067;-93
2020/12/20 05:16:40;;;;;;;10.80;1.80;;;5.70;99.90;;;;;;5066460;28;20040;-92
2020/12/20 05:19:08;;;;;;;8.10;1.00;;;5.70;99.90;;;;;;5066339;28;20021;-93
2020/12/20 05:21:34;;;;;;;6.75;1.00;;;5.70;99.90;;;;;;5063844;28;20029;-93
2020/12/20 05:24:21;;;;;;;7.28;0.95;;;5.70;99.90;;;;;;5060676;28;20120;-93
2020/12/20 05:26:46;;;;;;;6.43;1.15;;;5.70;99.90;;;;;;5059322;28;20036;-93
2020/12/20 05:29:13;;;;;;;6.93;1.40;;;5.70;99.90;;;;;;5061391;28;20025;-93
2020/12/20 05:31:39;;;;;;;6.70;1.58;;;5.70;99.90;;;;;;5063000;28;20033;-93
2020/12/20 05:34:05;;;;;;;9.10;1.30;;;5.70;99.90;;;;;;5057356;28;20083;-93
2020/12/20 05:36:31;;;;;;;9.82;1.98;;;5.70;99.90;;;;;;5056854;28;20028;-93
2020/12/20 05:39:15;;;;;;;7.00;1.05;;;5.70;99.90;;;;;;5057334;28;20106;-94
2020/12/20 05:41:42;;;;;;;4.43;0.80;;;5.70;99.90;;;;;;5056164;28;20025;-93
2020/12/20 05:44:19;;;;;;;5.80;1.10;;;5.60;99.90;;;;;;5056164;28;20021;-93
2020/12/20 05:46:47;;;;;;;3.10;0.75;;;5.60;99.90;;;;;;5054388;28;20021;-94
2020/12/20 05:49:17;;;;;;;4.97;0.80;;;5.60;99.90;;;;;;5055656;28;20035;-93
2020/12/20 05:52:06;;;;;;;4.97;1.02;;;5.60;99.90;;;;;;5055396;28;20040;-93
2020/12/20 05:54:33;;;;;;;6.43;0.75;;;5.50;99.90;;;;;;5054466;28;20037;-92
2020/12/20 05:57:16;;;;;;;9.20;1.33;;;5.50;99.90;;;;;;5058200;28;20466;-93
2020/12/20 05:59:45;;;;;;;3.92;0.90;;;5.50;99.90;;;;;;5055864;28;20119;-93
2020/12/20 06:02:12;;;;;;;6.07;0.85;;;5.50;99.90;;;;;;5058942;28;20017;-93
2020/12/20 06:04:40;;;;;;;4.53;0.82;;;5.40;99.90;;;;;;5085112;28;20028;-94
2020/12/20 06:07:07;;;;;;;8.02;0.73;;;5.40;99.90;;;;;;5075341;28;20037;-93
2020/12/20 06:09:53;;;;;;;4.97;1.13;;;5.40;99.90;;;;;;5075711;28;20032;-91
2020/12/20 06:12:21;;;;;;;6.85;1.55;;;5.40;99.90;;;;;;5074346;28;20045;-91
2020/12/20 06:14:47;;;;;;;4.22;1.00;;;5.40;99.90;;;;;;5075690;28;20013;-91
2020/12/20 06:17:21;;;;;;;3.88;1.02;;;5.40;99.90;;;;;;5075417;28;20044;-92
2020/12/20 06:19:48;;;;;;;4.07;0.88;;;5.40;99.90;;;;;;5080704;28;20032;-92
2020/12/20 06:22:19;;;;;;;4.82;1.05;;;5.30;99.90;;;;;;5061758;28;20025;-93
2020/12/20 06:24:52;;;;;;;8.65;0.90;;;5.40;99.90;;;;;;5076207;28;20033;-93
2020/12/20 06:27:26;;;;;;;5.53;0.95;;;5.40;99.90;;;;;;5056955;28;20048;-94
2020/12/20 06:29:54;;;;;;;11.65;1.08;;;5.30;99.90;;;;;;5058581;28;20043;-93
2020/12/20 06:32:35;;;;;;;2.92;0.52;;;5.30;99.90;;;;;;5059031;28;20028;-92
2020/12/20 06:35:14;;;;;;;5.53;1.10;;;5.30;99.90;;;;;;5058885;28;20029;-93
2020/12/20 06:37:42;;;;;;;7.93;1.30;;;5.30;99.90;;;;;;5060926;28;20085;-93
2020/12/20 06:40:21;;;;;;;2.20;0.88;;;5.30;99.90;;;;;;5062028;28;20028;-93
2020/12/20 06:42:47;;;;;;;6.55;1.65;;;5.30;99.90;;;;;;5059264;28;20021;-92
2020/12/20 06:45:20;;;;;;;7.53;1.25;;;5.30;99.90;;;;;;5060988;28;20075;-93
2020/12/20 06:47:50;;;;;;;3.63;0.80;;;5.30;99.90;;;;;;5060886;28;20116;-93
2020/12/20 06:50:41;;;;;;;6.33;1.13;;;5.30;99.90;;;;;;5058848;28;20029;-93
2020/12/20 06:53:08;;;;;;;4.28;1.00;;;5.30;99.90;;;;;;5057061;28;20052;-93
2020/12/20 06:55:38;;;;;;;5.70;0.88;;;5.20;99.90;;;;;;5057222;28;20025;-92
2020/12/20 06:58:04;;;;;;;6.47;1.05;;;5.20;99.90;;;;;;5059112;28;20490;-92
2020/12/20 07:00:41;;;;;;;4.57;0.93;;;5.20;99.90;;;;;;5064137;28;20029;-93
2020/12/20 07:03:23;;;;;;;5.35;0.90;;;5.20;99.90;;;;;;5075262;28;20025;-93
2020/12/20 07:05:53;;;;;;;7.72;0.82;;;5.10;99.90;;;;;;5058700;28;20108;-92
2020/12/20 07:08:32;;;;;;;6.70;0.95;;;5.10;99.90;;;;;;5075520;28;20035;-93
2020/12/20 07:11:21;;;;;;;8.13;1.40;;;5.10;99.90;;;;;;5057707;28;20017;-92
2020/12/20 07:13:48;;;;;;;10.48;1.35;;;5.10;99.90;;;;;;5057085;28;20040;-93
2020/12/20 07:16:15;;;;;;;6.55;1.33;;;5.10;99.90;;;;;;5073698;28;20032;-93
2020/12/20 07:18:57;;;;;;;5.15;1.10;;;5.10;99.90;;;;;;5070745;28;20025;-92
2020/12/20 07:21:23;;;;;;;6.40;1.00;;;5.00;99.90;;;;;;5074510;28;20024;-93
2020/12/20 07:23:53;;;;;;;4.93;0.95;;;5.00;99.90;;;;;;5075333;28;20021;-92
2020/12/20 07:26:22;;;;;;;6.93;1.17;;;5.00;99.90;;;;;;5059739;28;20029;-93
2020/12/20 07:28:48;;;;;;;7.88;1.02;;;5.00;99.90;;;;;;5079048;28;20031;-93
2020/12/20 07:31:18;;;;;;;7.18;1.13;;;5.00;99.90;;;;;;5079511;28;20063;-93
2020/12/20 07:33:45;;;;;;;11.30;1.52;;;5.00;99.90;;;;;;5081250;28;20037;-92
2020/12/20 07:36:11;;;;;;;8.15;1.33;;;5.00;99.90;;;;;;5078735;28;20025;-93
2020/12/20 07:38:37;;;;;;;5.28;1.48;;;5.00;99.90;;;;;;5073837;28;20029;-93
2020/12/20 07:41:13;;;;;;;7.75;1.10;;;5.00;99.90;;;;;;5065055;28;20033;-93
2020/12/20 07:43:39;;;;;;;6.40;1.10;;;5.10;99.90;;;;;;5057011;28;20012;-92
2020/12/20 07:46:08;;;;;;;9.43;1.50;;;5.10;99.90;;;;;;5073317;28;20049;-92
2020/12/20 07:48:34;;;;;;;5.80;1.13;;;5.10;99.90;;;;;;5056800;28;20017;-92
2020/12/20 07:51:13;;;;;;;12.07;1.83;;;5.00;99.90;;;;;;5075695;28;20086;-93
2020/12/20 07:53:57;;;;;;;12.55;1.80;;;5.00;99.90;;;;;;5057216;28;20057;-92
2020/12/20 07:56:23;;;;;;;7.10;1.08;;;5.00;99.90;;;;;;5058861;28;20033;-92
2020/12/20 07:58:50;;;;;;;11.63;1.30;;;5.00;99.90;;;;;;5059929;28;20029;-93
2020/12/20 08:01:16;;;;;;;3.72;1.00;;;5.00;99.90;;;;;;5077248;28;20046;-93
2020/12/20 08:03:42;;;;;;;8.73;1.40;;;5.00;99.90;;;;;;5058296;28;20111;-93
2020/12/20 08:06:09;;;;;;;10.70;1.55;;;5.00;99.90;;;;;;5058446;28;20051;-92
2020/12/20 08:08:35;;;;;;;7.43;1.40;;;5.00;99.90;;;;;;5057435;28;20494;-93
2020/12/20 08:11:03;;;;;;;11.23;1.13;;;5.00;99.90;;;;;;5072871;28;20021;-92
2020/12/20 08:13:30;;;;;;;12.85;1.40;;;5.00;99.90;;;;;;5055705;28;20040;-93
2020/12/20 08:15:56;;;;;;;4.68;1.13;;;5.00;99.90;;;;;;5073307;28;20048;-92
2020/12/20 08:18:22;;;;;;;12.27;1.15;;;5.00;99.90;;;;;;5056629;28;20497;-93
2020/12/20 08:20:48;;;;;;;4.50;1.10;;;5.10;99.90;;;;;;5056723;28;20095;-91
2020/12/20 08:23:14;;;;;;;10.65;1.35;;;5.10;99.90;;;;;;5057792;28;20033;-94
2020/12/20 08:25:40;;;;;;;6.00;1.05;;;5.10;99.90;;;;;;5059409;28;20127;-91
2020/12/20 08:28:07;;;;;;;9.90;1.70;;;5.10;99.90;;;;;;5066584;28;20029;-92
2020/12/20 08:30:37;;;;;;;8.23;1.10;;;5.10;99.90;;;;;;5058191;28;20120;-93
2020/12/20 08:33:02;;;;;;;5.22;0.93;;;5.10;99.90;;;;;;5057626;28;20029;-93
2020/12/20 08:35:28;;;;;;;8.07;1.55;;;5.10;99.90;;;;;;5058359;28;20462;-93
2020/12/20 08:37:58;;;;;;;6.07;0.90;;;5.10;99.90;;;;;;5058743;28;20040;-93
2020/12/20 08:40:24;;;;;;;8.80;1.35;;;5.10;99.90;;;;;;5059125;28;20029;-93
2020/12/20 08:42:52;;;;;;;4.00;1.02;;;5.10;99.90;;;;;;5056083;28;20033;-92
2020/12/20 08:45:20;;;;;;;5.38;1.60;;;5.20;99.90;;;;;;5055244;28;20116;-93
2020/12/20 08:47:47;;;;;;;5.90;1.27;;;5.20;99.90;;;;;;5056186;28;20025;-93
2020/12/20 08:50:13;;;;;;;9.13;1.30;;;5.20;99.90;;;;;;5055801;28;20155;-91
2020/12/20 08:52:39;;;;;;;6.70;1.15;;;5.20;99.90;;;;;;5056295;28;20497;-92
2020/12/20 08:55:07;;;;;;;7.90;1.10;;;5.30;99.90;;;;;;5041137;28;20033;-93
2020/12/20 08:57:36;;;;;;;6.40;1.02;;;5.30;99.90;;;;;;5065998;28;20037;-92
2020/12/20 09:00:10;;;;;;;5.60;0.77;;;5.30;99.90;;;;;;5084018;28;20021;-93
2020/12/20 09:02:36;;;;;;;7.60;1.15;;;5.30;99.90;;;;;;5066282;28;20021;-92
2020/12/20 09:05:11;;;;;;;7.28;1.88;;;5.40;99.90;;;;;;5081475;28;21274;-92
2020/12/20 09:07:40;;;;;;;6.35;1.40;;;5.40;99.90;;;;;;5069524;28;20029;-93
2020/12/20 09:10:09;;;;;;;4.32;1.08;;;5.40;99.90;;;;;;5083079;28;20101;-93
2020/12/20 09:12:36;;;;;;;5.13;1.10;;;5.50;99.90;;;;;;5061069;28;20090;-94
2020/12/20 09:15:13;;;;;;;10.50;1.20;;;5.50;99.90;;;;;;5072791;28;20055;-93
2020/12/20 09:17:41;;;;;;;6.90;1.30;;;5.60;99.90;;;;;;5055594;28;20016;-94
2020/12/20 09:20:09;;;;;;;13.50;1.55;;;5.60;99.90;;;;;;5064996;28;20035;-92
2020/12/20 09:22:48;;;;;;;12.93;1.80;;;5.60;99.90;;;;;;5065714;28;20029;-94
2020/12/20 09:25:17;;;;;;;11.93;1.40;;;5.70;99.90;;;;;;5091710;28;20009;-93
2020/12/20 09:27:53;;;;;;;12.15;1.20;;;5.80;99.90;;;;;;5073312;28;20097;-93
2020/12/20 09:30:37;;;;;;;10.95;1.52;;;5.80;99.90;;;;;;5056462;28;20032;-93
2020/12/20 09:33:23;;;;;;;13.77;1.77;;;5.90;99.90;;;;;;5054436;28;20084;-92
2020/12/20 09:35:49;;;;;;;10.05;1.63;;;6.00;99.90;;;;;;5054187;28;20029;-94
2020/12/20 09:38:14;;;;;;;10.07;1.42;;;6.10;99.90;;;;;;5069727;28;20032;-92
2020/12/20 09:40:40;;;;;;;9.05;1.48;;;6.20;99.90;;;;;;5051958;28;20128;-92
2020/12/20 09:43:06;;;;;;;10.95;1.75;;;6.20;99.90;;;;;;5052627;28;20039;-92
2020/12/20 09:45:31;;;;;;;9.57;1.60;;;6.30;99.90;;;;;;5052476;28;20040;-93
2020/12/20 09:47:57;;;;;;;8.15;1.65;;;6.40;99.90;;;;;;5054139;28;20021;-94
2020/12/20 09:50:22;;;;;;;8.70;2.30;;;6.50;99.90;;;;;;5054981;28;20120;-92
2020/12/20 09:52:48;;;;;;;9.60;2.15;;;6.50;99.90;;;;;;5056184;28;20045;-91
2020/12/20 09:55:14;;;;;;;9.23;1.73;;;6.60;99.90;;;;;;5055287;28;20033;-92
2020/12/20 09:57:39;;;;;;;8.85;1.75;;;6.60;99.90;;;;;;5055951;28;20032;-93
2020/12/20 10:00:05;;;;;;;11.70;1.75;;;6.70;99.90;;;;;;5051733;28;20024;-93
2020/12/20 10:02:32;;;;;;;9.27;1.67;;;6.70;99.90;;;;;;5052058;28;21264;-94
2020/12/20 10:04:58;;;;;;;4.85;1.50;;;6.80;99.90;;;;;;5051122;28;20080;-92
2020/12/20 10:07:24;;;;;;;12.30;1.65;;;6.80;99.90;;;;;;5050084;28;20474;-94
2020/12/20 10:09:49;;;;;;;9.38;1.95;;;6.80;99.90;;;;;;5066237;28;20080;-95
2020/12/20 10:12:16;;;;;;;12.60;2.10;;;6.90;99.90;;;;;;5032543;28;20102;-93
2020/12/20 10:14:42;;;;;;;13.40;2.13;;;6.90;99.90;;;;;;5050861;28;20047;-92
2020/12/20 10:17:08;;;;;;;13.23;1.80;;;6.90;99.90;;;;;;5070324;28;20028;-94
2020/12/20 10:19:34;;;;;;;9.70;1.63;;;7.00;99.90;;;;;;5055093;28;20021;-92
2020/12/20 10:22:00;;;;;;;11.75;2.15;;;7.00;99.90;;;;;;5056185;28;20029;-92
2020/12/20 10:24:26;;;;;;;11.90;2.28;;;7.00;99.90;;;;;;5055606;28;20116;-91
2020/12/20 10:26:51;;;;;;;11.35;2.25;;;7.00;99.90;;;;;;5070366;28;20064;-92
2020/12/20 10:29:17;;;;;;;11.43;2.72;;;7.00;99.90;;;;;;5051821;28;20033;-94
2020/12/20 10:31:44;;;;;;;14.32;2.25;;;7.00;99.90;;;;;;5054949;28;20029;-94
2020/12/20 10:34:11;;;;;;;9.77;2.05;;;7.00;99.90;;;;;;5051403;28;20040;-94
2020/12/20 10:36:37;;;;;;;11.10;2.00;;;6.90;99.90;;;;;;5041369;28;20056;-94
2020/12/20 10:39:12;;;;;;;13.25;1.83;;;6.90;99.90;;;;;;5066758;28;20040;-94
2020/12/20 10:41:41;;;;;;;13.95;2.08;;;6.90;99.90;;;;;;5046040;28;20025;-94
2020/12/20 10:44:07;;;;;;;8.32;1.92;;;6.90;99.90;;;;;;5045575;28;20022;-95
2020/12/20 10:46:35;;;;;;;5.93;1.67;;;6.80;99.90;;;;;;5045788;28;20028;-94
2020/12/20 10:49:03;;;;;;;9.40;1.70;;;6.80;99.90;;;;;;5038977;28;20025;-95
2020/12/20 10:51:29;;;;;;;7.72;1.30;;;6.80;99.90;;;;;;5041613;28;20138;-94
2020/12/20 10:53:57;;;;;;;12.95;2.80;;;6.80;99.90;;;;;;5038598;28;20514;-93
2020/12/20 10:56:25;;;;;;;9.27;1.50;;;6.90;99.90;;;;;;5038580;28;20025;-93
2020/12/20 10:58:51;;;;;;;11.23;1.42;;;6.90;99.90;;;;;;5047995;28;20024;-95
2020/12/20 11:01:18;;;;;;;11.55;1.50;;;7.00;99.90;;;;;;5045947;28;20032;-94
2020/12/20 11:03:50;;;;;;;8.95;1.60;;;7.10;99.90;;;;;;5045687;28;20120;-94
2020/12/20 11:06:25;;;;;;;12.27;2.35;;;7.10;99.90;;;;;;5047271;28;20017;-94
2020/12/20 11:08:51;;;;;;;7.70;1.27;;;7.20;99.90;;;;;;5051805;28;20025;-94
2020/12/20 11:11:18;;;;;;;7.07;1.27;;;7.20;99.90;;;;;;5052890;28;20033;-93
2020/12/20 11:13:44;;;;;;;10.80;1.55;;;7.30;99.90;;;;;;5045516;28;20037;-93
2020/12/20 11:16:19;;;;;;;10.05;1.45;;;7.60;99.90;;;;;;5049806;28;20029;-93
2020/12/20 11:18:46;;;;;;;7.53;1.50;;;7.90;99.90;;;;;;5048382;28;20025;-93
2020/12/20 11:21:13;;;;;;;5.93;1.38;;;8.10;99.90;;;;;;5048289;28;20155;-92
2020/12/20 11:23:39;;;;;;;8.25;1.38;;;8.20;99.90;;;;;;5048829;28;20053;-91
2020/12/20 11:26:17;;;;;;;7.30;1.90;;;8.30;99.90;;;;;;5061570;28;20055;-92
2020/12/20 11:28:44;;;;;;;8.10;1.67;;;8.20;99.90;;;;;;5064208;28;20021;-94
2020/12/20 11:31:12;;;;;;;7.97;1.83;;;8.10;99.90;;;;;;5047735;28;20052;-93
2020/12/20 11:33:38;;;;;;;6.15;1.70;;;8.00;99.90;;;;;;5055940;28;20037;-93
2020/12/20 11:36:05;;;;;;;9.88;2.00;;;8.00;99.90;;;;;;5049860;28;20036;-93
2020/12/20 11:38:31;;;;;;;8.80;2.42;;;8.10;99.90;;;;;;5052216;28;20431;-94
2020/12/20 11:40:58;;;;;;;2.97;1.23;;;8.20;99.90;;;;;;5055696;28;20055;-94
2020/12/20 11:43:24;;;;;;;4.30;1.13;;;8.30;99.90;;;;;;5051155;28;20025;-94
2020/12/20 11:45:53;;;;;;;8.50;1.77;;;8.50;99.90;;;;;;5047985;28;20021;-93
2020/12/20 11:48:19;;;;;;;11.15;2.03;;;8.80;99.90;;;;;;5051367;28;20025;-93
2020/12/20 11:50:44;;;;;;;7.47;1.67;;;8.90;99.90;;;;;;5051116;28;20043;-94
2020/12/20 11:53:11;;;;;;;5.47;1.60;;;9.00;99.90;;;;;;5054473;28;20045;-94
2020/12/20 11:55:37;;;;;;;6.13;1.30;;;9.10;99.90;;;;;;5054865;28;20031;-94
2020/12/20 11:58:08;;;;;;;7.65;1.50;;;9.10;99.90;;;;;;5053784;28;20021;-93
2020/12/20 12:00:33;;;;;;;6.72;1.50;;;8.90;99.90;;;;;;5052294;28;20025;-93
2020/12/20 12:02:59;;;;;;;7.55;1.30;;;8.80;99.90;;;;;;5053642;28;20032;-94
2020/12/20 12:05:25;;;;;;;4.35;1.25;;;8.60;99.90;;;;;;5059151;28;20039;-94
2020/12/20 12:07:50;;;;;;;8.00;2.08;;;8.40;99.90;;;;;;5061155;28;20417;-94
2020/12/20 12:10:16;;;;;;;7.38;1.50;;;8.20;99.90;;;;;;5056752;28;20025;-94
2020/12/20 12:12:42;;;;;;;8.50;3.63;;;8.10;99.90;;;;;;5059295;28;20037;-94
2020/12/20 12:15:07;;;;;;;7.82;1.70;;;8.00;99.90;;;;;;5054827;28;20115;-94
2020/12/20 12:17:33;;;;;;;6.63;1.77;;;7.90;99.90;;;;;;5055288;28;20032;-95
2020/12/20 12:19:59;;;;;;;5.20;1.70;;;7.90;99.90;;;;;;5064011;28;20066;-93
2020/12/20 12:22:25;;;;;;;5.30;1.75;;;7.80;99.90;;;;;;5056743;28;20028;-93
2020/12/20 12:24:51;;;;;;;9.35;2.17;;;7.80;99.90;;;;;;5053605;28;20025;-95
2020/12/20 12:27:17;;;;;;;7.40;1.85;;;7.70;99.90;;;;;;5056047;28;20117;-94
2020/12/20 12:29:42;;;;;;;6.50;1.80;;;7.60;99.90;;;;;;5047329;28;20029;-93
2020/12/20 12:32:08;;;;;;;10.43;2.50;;;7.60;99.90;;;;;;5054651;28;20029;-93
2020/12/20 12:34:34;;;;;;;7.20;2.03;;;7.50;99.90;;;;;;5060957;28;20498;-94
2020/12/20 12:37:04;;;;;;;6.55;1.65;;;7.50;99.90;;;;;;5065032;28;20089;-95
2020/12/20 12:39:30;;;;;;;9.23;1.88;;;7.50;99.90;;;;;;5076546;28;20017;-96
2020/12/20 12:44:53;;;;;;;6.15;1.70;;;7.50;99.90;;;;;;5241049;23;20041;-95
2020/12/20 13:12:56;;;;;;;2.85;1.00;;;7.20;99.90;;;;;;5706611;22;20471;31
2020/12/20 13:18:23;;;;;;;5.03;1.17;;;7.20;99.90;;;;;;5880675;22;20041;-95
2020/12/20 13:20:51;;;;;;;6.78;1.63;;;7.20;99.90;;;;;;5038944;28;20049;-96
2020/12/20 13:23:19;;;;;;;4.60;1.42;;;7.20;99.90;;;;;;5038562;28;20025;-95
2020/12/20 13:26:06;;;;;;;2.90;1.20;;;7.20;99.90;;;;;;5040148;28;20081;-96
2020/12/20 13:46:16;;;;;;;2.42;0.77;;;7.10;99.90;;;;;;5107727;28;20089;-95
2020/12/20 13:48:42;;;;;;;1.48;0.75;;;7.10;99.90;;;;;;5089554;28;20039;-95